Time;durP1;ratioP1;P1;durP2;ratioP2;P2;SDS_P1;SDS_P2;PMS_P1;PMS_P2;Temp;Humidity;BMP_temperature;BMP_pressure;BME280_temperature;BME280_humidity;BME280_pressure;Samples;Min_cycle;Max_cycle;Signal;HPM_P1;HPM_P2
2022/05/25 00:00:00;;;;;;;3.24;1.89;;;18.40;99.90;;;;;;169130;29;1869;-71
2022/05/25 00:00:10;;;;;;;2.80;1.77;;;18.40;99.90;;;;;;169707;29;1251;-71
2022/05/25 00:00:18;;;;;;;2.89;1.89;;;18.40;99.90;;;;;;169878;29;1398;-71
2022/05/25 00:00:25;;;;;;;2.85;1.93;;;18.40;99.90;;;;;;170471;29;953;-71
2022/05/25 00:00:32;;;;;;;2.93;1.87;;;18.40;99.90;;;;;;169384;29;1520;-71
2022/05/25 00:00:38;;;;;;;4.15;1.98;;;18.40;99.90;;;;;;169776;29;934;-71
2022/05/25 00:00:44;;;;;;;4.04;1.94;;;18.30;99.90;;;;;;169932;29;1039;-71
2022/05/25 00:01:04;;;;;;;4.30;1.85;;;18.30;99.90;;;;;;170526;29;1074;-71
2022/05/25 00:01:10;;;;;;;3.72;1.75;;;18.30;99.90;;;;;;169970;28;1455;-71
2022/05/25 00:01:16;;;;;;;3.30;1.80;;;18.30;99.90;;;;;;170467;29;1529;-71
2022/05/25 00:01:22;;;;;;;4.60;1.90;;;18.30;99.90;;;;;;170834;28;1199;-71
2022/05/25 00:01:29;;;;;;;4.60;1.96;;;18.30;99.90;;;;;;169154;29;1054;-71
2022/05/25 00:01:36;;;;;;;4.94;2.00;;;18.30;99.90;;;;;;170556;28;1255;-71
2022/05/25 00:01:42;;;;;;;5.35;2.00;;;18.30;99.90;;;;;;168807;29;1662;-71
2022/05/25 00:01:48;;;;;;;4.93;1.93;;;18.30;99.90;;;;;;169236;29;1132;-71
2022/05/25 00:01:54;;;;;;;4.83;1.93;;;18.30;99.90;;;;;;168612;29;817;-71
2022/05/25 00:02:01;;;;;;;4.93;1.90;;;18.30;99.90;;;;;;168422;29;1249;-71
2022/05/25 00:02:07;;;;;;;4.72;1.80;;;18.30;99.90;;;;;;169755;29;1050;-71
2022/05/25 00:02:17;;;;;;;4.33;1.80;;;18.20;99.90;;;;;;169049;29;1197;-71
2022/05/25 00:02:24;;;;;;;3.93;1.90;;;18.20;99.90;;;;;;169748;29;1028;-71
2022/05/25 00:02:30;;;;;;;3.73;1.90;;;18.20;99.90;;;;;;169990;29;1128;-71
2022/05/25 00:02:37;;;;;;;3.75;1.90;;;18.20;99.90;;;;;;170567;29;961;-71
2022/05/25 00:02:43;;;;;;;3.98;1.88;;;18.30;99.90;;;;;;170603;28;1055;-71
2022/05/25 00:02:49;;;;;;;4.40;1.80;;;18.20;99.90;;;;;;171081;28;1160;-71
2022/05/25 00:02:55;;;;;;;4.16;1.62;;;18.20;99.90;;;;;;170749;28;1328;-71
2022/05/25 00:03:01;;;;;;;4.20;1.70;;;18.20;99.90;;;;;;170530;29;1710;-71
2022/05/25 00:03:07;;;;;;;4.60;1.80;;;18.20;99.90;;;;;;169989;28;1143;-71
2022/05/25 00:03:13;;;;;;;3.20;1.73;;;18.20;99.90;;;;;;170919;28;1539;-71
2022/05/25 00:03:19;;;;;;;3.18;1.80;;;18.20;99.90;;;;;;171067;28;891;-71
2022/05/25 00:03:26;;;;;;;3.37;1.90;;;18.20;99.90;;;;;;170315;28;1568;-71
2022/05/25 00:03:35;;;;;;;3.60;1.94;;;18.20;99.90;;;;;;170445;29;910;-71
2022/05/25 00:03:41;;;;;;;3.83;2.10;;;18.20;99.90;;;;;;170288;29;1512;-71
2022/05/25 00:03:47;;;;;;;3.95;2.10;;;18.20;99.90;;;;;;169871;29;1086;-71
2022/05/25 00:03:52;;;;;;;3.88;2.05;;;18.20;99.90;;;;;;169930;29;980;-71
2022/05/25 00:04:00;;;;;;;3.73;2.00;;;18.20;99.90;;;;;;169949;29;1030;-71
2022/05/25 00:04:06;;;;;;;4.17;1.97;;;18.20;99.90;;;;;;169716;29;1365;-71
2022/05/25 00:04:13;;;;;;;4.03;2.00;;;18.20;99.90;;;;;;169217;29;1709;-71
2022/05/25 00:04:18;;;;;;;3.90;2.00;;;18.20;99.90;;;;;;170554;28;1582;-71
2022/05/25 00:04:24;;;;;;;4.17;2.00;;;18.20;99.90;;;;;;170456;29;949;-71
2022/05/25 00:04:30;;;;;;;4.50;2.08;;;18.20;99.90;;;;;;170542;28;1385;-71
2022/05/25 00:04:36;;;;;;;3.78;2.03;;;18.20;99.90;;;;;;169883;29;914;-71
2022/05/25 00:04:42;;;;;;;3.45;1.90;;;18.20;99.90;;;;;;170533;28;1160;-71
2022/05/25 00:04:48;;;;;;;3.30;1.80;;;18.20;99.90;;;;;;169810;29;911;-71
2022/05/25 00:04:54;;;;;;;3.17;1.85;;;18.20;99.90;;;;;;169720;29;1406;-71
2022/05/25 00:05:00;;;;;;;2.58;1.73;;;18.20;99.90;;;;;;169863;29;1317;-71
2022/05/25 00:05:10;;;;;;;2.53;1.70;;;18.20;99.90;;;;;;168938;29;1728;-71
2022/05/25 00:05:17;;;;;;;2.64;1.67;;;18.20;99.90;;;;;;168777;29;1141;-71
2022/05/25 00:05:23;;;;;;;2.57;1.70;;;18.20;99.90;;;;;;170000;29;1289;-71
2022/05/25 00:05:30;;;;;;;2.65;1.73;;;18.20;99.90;;;;;;169917;29;987;-71
2022/05/25 00:05:37;;;;;;;3.30;1.92;;;18.20;99.90;;;;;;169058;29;1506;-71
2022/05/25 00:05:42;;;;;;;3.52;2.10;;;18.20;99.90;;;;;;168384;29;1599;-71
2022/05/25 00:05:48;;;;;;;4.07;2.20;;;18.20;99.90;;;;;;169405;29;1223;-71
2022/05/25 00:05:57;;;;;;;4.05;2.13;;;18.10;99.90;;;;;;169896;29;1013;-71
2022/05/25 00:06:06;;;;;;;4.00;2.18;;;18.10;99.90;;;;;;169876;29;1348;-71
2022/05/25 00:06:12;;;;;;;3.90;2.11;;;18.10;99.90;;;;;;169248;29;1413;-71
2022/05/25 00:06:18;;;;;;;3.40;2.00;;;18.10;99.90;;;;;;170684;28;1717;-71
2022/05/25 00:06:24;;;;;;;3.38;1.98;;;18.10;99.90;;;;;;170464;29;915;-71
2022/05/25 00:06:30;;;;;;;3.07;1.90;;;18.10;99.90;;;;;;170321;29;1485;-71
2022/05/25 00:06:36;;;;;;;3.00;1.82;;;18.10;99.90;;;;;;170461;29;1431;-71
2022/05/25 00:06:43;;;;;;;2.83;1.80;;;18.10;99.90;;;;;;170121;29;1352;-71
2022/05/25 00:06:49;;;;;;;3.38;1.80;;;18.10;99.90;;;;;;169876;29;1037;-71
2022/05/25 00:06:55;;;;;;;3.67;1.83;;;18.10;99.90;;;;;;169609;29;1249;-71
2022/05/25 00:07:01;;;;;;;3.80;1.92;;;18.10;99.90;;;;;;169153;29;1380;-71
2022/05/25 00:07:07;;;;;;;4.07;2.10;;;18.10;99.90;;;;;;167709;29;2192;-71
2022/05/25 00:07:13;;;;;;;3.78;2.13;;;18.10;99.90;;;;;;168646;29;932;-71
2022/05/25 00:07:22;;;;;;;3.08;2.00;;;18.10;99.90;;;;;;168556;29;1008;-71
2022/05/25 00:07:28;;;;;;;2.79;2.00;;;18.10;99.90;;;;;;169211;29;1050;-71
2022/05/25 00:07:34;;;;;;;2.63;1.93;;;18.10;99.90;;;;;;169235;29;1191;-71
2022/05/25 00:07:40;;;;;;;2.53;1.88;;;18.10;99.90;;;;;;169082;29;1560;-71
2022/05/25 00:07:46;;;;;;;3.13;2.23;;;18.10;99.90;;;;;;168683;29;1320;-71
2022/05/25 00:07:51;;;;;;;3.35;2.33;;;18.10;99.90;;;;;;169173;29;1362;-71
2022/05/25 00:07:58;;;;;;;4.65;2.58;;;18.10;99.90;;;;;;169166;29;967;-71
2022/05/25 00:08:05;;;;;;;5.77;2.67;;;18.10;99.90;;;;;;169022;29;2199;-71
2022/05/25 00:08:11;;;;;;;5.73;2.57;;;18.10;99.90;;;;;;169587;29;1587;-71
2022/05/25 00:08:18;;;;;;;5.40;2.40;;;18.10;99.90;;;;;;170501;28;1380;-71
2022/05/25 00:08:24;;;;;;;5.18;2.28;;;18.10;99.90;;;;;;169853;29;871;-71
2022/05/25 00:08:30;;;;;;;4.10;2.10;;;18.10;99.90;;;;;;170039;29;892;-71
2022/05/25 00:08:38;;;;;;;3.94;1.92;;;18.10;99.90;;;;;;170213;29;1490;-71
2022/05/25 00:08:44;;;;;;;3.40;1.80;;;18.10;99.90;;;;;;169104;29;3017;-71
2022/05/25 00:08:50;;;;;;;3.90;1.88;;;18.00;99.90;;;;;;169675;29;1192;-71
2022/05/25 00:08:55;;;;;;;4.05;1.98;;;18.00;99.90;;;;;;169561;29;1078;-71
2022/05/25 00:09:02;;;;;;;3.45;2.10;;;18.00;99.90;;;;;;169738;29;1189;-71
2022/05/25 00:09:08;;;;;;;3.60;2.13;;;18.00;99.90;;;;;;169017;29;1575;-71
2022/05/25 00:09:14;;;;;;;3.88;2.05;;;18.00;99.90;;;;;;169244;29;872;-71
2022/05/25 00:09:21;;;;;;;3.43;2.10;;;18.00;99.90;;;;;;169236;29;1400;-71
2022/05/25 00:09:27;;;;;;;3.18;2.02;;;18.00;99.90;;;;;;169928;29;1018;-71
2022/05/25 00:09:32;;;;;;;3.03;1.95;;;18.00;99.90;;;;;;169895;29;1227;-71
2022/05/25 00:09:39;;;;;;;3.00;2.00;;;18.00;99.90;;;;;;170194;29;1303;-71
2022/05/25 00:09:44;;;;;;;3.07;2.23;;;18.00;99.90;;;;;;170363;29;1079;-71
2022/05/25 00:09:51;;;;;;;3.67;2.20;;;18.00;99.90;;;;;;169260;29;1788;-71
2022/05/25 00:09:57;;;;;;;4.17;2.33;;;18.00;99.90;;;;;;169924;29;867;-71
2022/05/25 00:10:04;;;;;;;4.40;2.40;;;18.00;99.90;;;;;;169627;29;1248;-71
2022/05/25 00:10:11;;;;;;;5.14;2.40;;;18.10;99.90;;;;;;169716;29;1515;-71
2022/05/25 00:10:16;;;;;;;5.04;2.24;;;18.00;99.90;;;;;;170798;28;1127;-71
2022/05/25 00:10:22;;;;;;;4.10;2.07;;;18.10;99.90;;;;;;171816;28;1262;-71
2022/05/25 00:10:28;;;;;;;3.80;2.03;;;18.10;99.90;;;;;;171360;28;1460;-71
2022/05/25 00:10:34;;;;;;;3.65;2.08;;;18.00;99.90;;;;;;169805;29;974;-71
2022/05/25 00:10:40;;;;;;;2.88;2.03;;;18.10;99.90;;;;;;169397;29;1344;-71
2022/05/25 00:10:46;;;;;;;2.65;1.88;;;18.00;99.90;;;;;;169405;29;1509;-71
2022/05/25 00:10:52;;;;;;;3.55;1.80;;;18.00;99.90;;;;;;169910;29;1047;-71
2022/05/25 00:10:58;;;;;;;3.80;1.90;;;18.00;99.90;;;;;;170842;28;1376;-71
2022/05/25 00:11:05;;;;;;;3.70;1.73;;;18.00;99.90;;;;;;171215;28;962;-71
2022/05/25 00:11:11;;;;;;;3.97;1.93;;;18.10;99.90;;;;;;170484;28;1012;-71
2022/05/25 00:11:17;;;;;;;4.35;2.05;;;18.00;99.90;;;;;;169868;29;1038;-71
2022/05/25 00:11:22;;;;;;;3.77;2.10;;;18.00;99.90;;;;;;169824;29;1183;-71
2022/05/25 00:11:28;;;;;;;3.75;2.15;;;18.00;99.90;;;;;;170452;28;1334;-71
2022/05/25 00:11:34;;;;;;;4.05;2.35;;;18.10;99.90;;;;;;169857;29;1962;-71
2022/05/25 00:11:40;;;;;;;3.88;2.20;;;18.10;99.90;;;;;;170020;29;1680;-70
2022/05/25 00:11:47;;;;;;;3.55;2.25;;;18.10;99.90;;;;;;170076;28;1217;-71
2022/05/25 00:11:53;;;;;;;3.33;2.20;;;18.10;99.90;;;;;;168538;29;907;-71
2022/05/25 00:11:58;;;;;;;3.26;2.10;;;18.10;99.90;;;;;;169737;29;2670;-71
2022/05/25 00:12:07;;;;;;;3.47;2.10;;;18.10;99.90;;;;;;169650;29;1365;-71
2022/05/25 00:12:13;;;;;;;3.44;2.04;;;18.10;99.90;;;;;;170322;28;1183;-71
2022/05/25 00:12:21;;;;;;;3.43;2.00;;;18.00;99.90;;;;;;171093;28;1853;-71
2022/05/25 00:12:27;;;;;;;4.04;2.24;;;18.10;99.90;;;;;;170660;28;1060;-71
2022/05/25 00:12:33;;;;;;;3.60;2.13;;;18.10;99.90;;;;;;170438;29;974;-71
2022/05/25 00:12:41;;;;;;;3.67;2.10;;;18.00;99.90;;;;;;169320;29;1004;-71
2022/05/25 00:12:46;;;;;;;3.82;2.20;;;18.00;99.90;;;;;;169220;29;919;-71
2022/05/25 00:12:52;;;;;;;3.65;2.25;;;18.00;99.90;;;;;;169775;29;1194;-71
2022/05/25 00:12:58;;;;;;;3.58;2.17;;;18.00;99.90;;;;;;170275;29;1618;-73
2022/05/25 00:13:05;;;;;;;3.83;2.25;;;18.00;99.90;;;;;;169632;29;1339;-71
2022/05/25 00:13:11;;;;;;;3.67;2.20;;;18.00;99.90;;;;;;169714;29;1650;-71
2022/05/25 00:13:17;;;;;;;3.67;2.20;;;18.00;99.90;;;;;;169940;29;844;-71
2022/05/25 00:13:23;;;;;;;4.00;2.22;;;18.00;99.90;;;;;;169292;29;1399;-71
2022/05/25 00:13:29;;;;;;;4.17;2.20;;;18.00;99.90;;;;;;169908;29;856;-71
2022/05/25 00:13:36;;;;;;;5.08;2.26;;;18.00;99.90;;;;;;170064;29;919;-71
2022/05/25 00:13:41;;;;;;;5.15;2.28;;;18.00;99.90;;;;;;169425;29;1490;-71
2022/05/25 00:13:47;;;;;;;5.22;2.17;;;18.00;99.90;;;;;;168533;29;1891;-71
2022/05/25 00:13:53;;;;;;;5.10;2.20;;;18.00;99.90;;;;;;169903;29;793;-71
2022/05/25 00:13:59;;;;;;;4.72;2.20;;;18.00;99.90;;;;;;170117;29;1688;-71
2022/05/25 00:14:05;;;;;;;3.50;2.10;;;18.00;99.90;;;;;;169718;29;1312;-71
2022/05/25 00:14:11;;;;;;;3.52;2.10;;;18.00;99.90;;;;;;169393;29;1712;-71
2022/05/25 00:14:18;;;;;;;3.20;2.10;;;18.00;99.90;;;;;;169025;29;1262;-71
2022/05/25 00:14:24;;;;;;;2.87;1.97;;;18.00;99.90;;;;;;169503;29;1328;-71
2022/05/25 00:14:30;;;;;;;2.70;1.97;;;18.00;99.90;;;;;;169153;29;1281;-71
2022/05/25 00:14:36;;;;;;;2.72;2.00;;;18.00;99.90;;;;;;168858;29;1612;-71
2022/05/25 00:14:42;;;;;;;2.70;1.98;;;18.00;99.90;;;;;;169165;29;901;-71
2022/05/25 00:14:48;;;;;;;2.43;1.80;;;18.00;99.90;;;;;;169931;29;994;-71
2022/05/25 00:14:54;;;;;;;2.88;1.84;;;18.00;99.90;;;;;;169869;29;1307;-71
2022/05/25 00:15:00;;;;;;;3.93;1.80;;;18.00;99.90;;;;;;169727;29;1168;-71
2022/05/25 00:15:09;;;;;;;4.05;1.75;;;18.10;99.90;;;;;;170588;28;1531;-71
2022/05/25 00:15:15;;;;;;;4.07;1.89;;;18.10;99.90;;;;;;169879;29;1049;-71
2022/05/25 00:15:21;;;;;;;4.47;2.10;;;18.00;99.90;;;;;;170021;29;1084;-71
2022/05/25 00:15:28;;;;;;;3.42;2.03;;;18.00;99.90;;;;;;171050;28;1283;-71
2022/05/25 00:15:35;;;;;;;3.08;2.10;;;18.00;99.90;;;;;;170665;28;1174;-71
2022/05/25 00:15:40;;;;;;;3.64;2.08;;;18.00;99.90;;;;;;171768;28;867;-71
2022/05/25 00:15:46;;;;;;;3.50;1.93;;;18.00;99.90;;;;;;171286;28;1064;-71
2022/05/25 00:15:52;;;;;;;3.42;1.92;;;18.00;99.90;;;;;;170442;29;1322;-71
2022/05/25 00:15:58;;;;;;;3.67;2.05;;;18.00;99.90;;;;;;170617;28;1143;-71
2022/05/25 00:16:04;;;;;;;3.58;2.00;;;18.00;99.90;;;;;;171128;28;1683;-71
2022/05/25 00:16:10;;;;;;;2.95;2.03;;;18.00;99.90;;;;;;170526;28;1614;-71
2022/05/25 00:16:17;;;;;;;3.70;2.08;;;18.10;99.90;;;;;;169788;29;1299;-71
2022/05/25 00:16:23;;;;;;;3.47;1.97;;;18.00;99.90;;;;;;170459;29;828;-71
2022/05/25 00:16:29;;;;;;;3.25;1.90;;;18.00;99.90;;;;;;170325;29;1382;-71
2022/05/25 00:16:35;;;;;;;3.57;2.00;;;18.00;99.90;;;;;;170497;29;1026;-71
2022/05/25 00:16:41;;;;;;;3.88;1.92;;;18.00;99.90;;;;;;168998;29;1678;-71
2022/05/25 00:16:47;;;;;;;3.63;1.98;;;18.00;99.90;;;;;;169648;29;1749;-71
2022/05/25 00:16:52;;;;;;;3.65;2.00;;;18.00;99.90;;;;;;169279;29;1192;-71
2022/05/25 00:16:59;;;;;;;3.57;1.90;;;18.00;99.90;;;;;;169128;29;1860;-71
2022/05/25 00:17:05;;;;;;;3.42;1.90;;;18.00;99.90;;;;;;170003;28;1656;-71
2022/05/25 00:17:10;;;;;;;3.17;1.90;;;18.10;99.90;;;;;;169735;29;1518;-71
2022/05/25 00:17:17;;;;;;;2.75;1.90;;;18.10;99.90;;;;;;170503;29;1397;-71
2022/05/25 00:17:22;;;;;;;2.80;2.00;;;18.10;99.90;;;;;;169826;29;1583;-71
2022/05/25 00:17:28;;;;;;;2.97;2.10;;;18.00;99.90;;;;;;169748;29;1292;-71
2022/05/25 00:17:34;;;;;;;3.45;2.08;;;18.10;99.90;;;;;;169922;29;1056;-71
2022/05/25 00:17:40;;;;;;;3.57;2.10;;;18.10;99.90;;;;;;169778;29;876;-71
2022/05/25 00:17:47;;;;;;;3.67;2.00;;;18.10;99.90;;;;;;170572;28;1241;-71
2022/05/25 00:17:53;;;;;;;4.02;1.94;;;18.10;99.90;;;;;;169852;29;1970;-71
2022/05/25 00:17:59;;;;;;;4.16;1.80;;;18.10;99.90;;;;;;170990;28;1135;-71
2022/05/25 00:18:05;;;;;;;4.55;1.98;;;18.10;99.90;;;;;;169934;29;1701;-71
2022/05/25 00:18:11;;;;;;;4.30;2.00;;;18.10;99.90;;;;;;168426;29;2291;-71
2022/05/25 00:18:17;;;;;;;4.20;2.00;;;18.10;99.90;;;;;;168516;29;1523;-71
2022/05/25 00:18:23;;;;;;;4.53;2.17;;;18.10;99.90;;;;;;168518;29;1042;-71
2022/05/25 00:18:30;;;;;;;4.55;2.22;;;18.10;99.90;;;;;;168844;29;1398;-71
2022/05/25 00:18:36;;;;;;;4.02;2.18;;;18.10;99.90;;;;;;170443;29;1339;-71
2022/05/25 00:19:58;;;;;;;4.40;2.33;;;18.10;99.90;;;;;;169449;29;2889;-71
2022/05/25 00:19:59;;;;;;;3.55;1.99;;;18.10;99.90;;;;;;169171;29;1183;-71
2022/05/25 00:20:07;;;;;;;3.74;1.97;;;18.20;99.90;;;;;;169146;29;1049;-71
2022/05/25 00:20:13;;;;;;;3.55;1.90;;;18.10;99.90;;;;;;169516;29;1867;-71
2022/05/25 00:20:20;;;;;;;4.10;1.90;;;18.10;99.90;;;;;;169261;29;874;-71
2022/05/25 00:20:25;;;;;;;3.63;1.87;;;18.10;99.90;;;;;;169845;29;1303;-71
2022/05/25 00:20:31;;;;;;;3.47;1.85;;;18.10;99.90;;;;;;169270;29;1469;-71
2022/05/25 00:20:37;;;;;;;3.50;1.90;;;18.20;99.90;;;;;;169974;28;1490;-71
2022/05/25 00:20:43;;;;;;;4.03;1.92;;;18.10;99.90;;;;;;170868;28;1545;-71
2022/05/25 00:20:49;;;;;;;3.70;2.10;;;18.20;99.90;;;;;;171018;28;1271;-71
2022/05/25 00:20:55;;;;;;;3.75;2.10;;;18.20;99.90;;;;;;169872;29;1101;-71
2022/05/25 00:21:00;;;;;;;3.85;2.00;;;18.20;99.90;;;;;;169874;29;951;-71
2022/05/25 00:21:06;;;;;;;3.67;2.00;;;18.20;99.90;;;;;;169869;29;1117;-71
2022/05/25 00:21:12;;;;;;;3.13;1.92;;;18.20;99.90;;;;;;170326;29;1485;-71
2022/05/25 00:21:17;;;;;;;3.03;1.83;;;18.20;99.90;;;;;;170439;28;1580;-71
2022/05/25 00:21:23;;;;;;;3.70;1.90;;;18.20;99.90;;;;;;170896;28;1416;-71
2022/05/25 00:21:30;;;;;;;3.78;1.92;;;18.20;99.90;;;;;;171121;28;1178;-71
2022/05/25 00:21:36;;;;;;;3.96;2.00;;;18.20;99.90;;;;;;169558;29;1286;-71
2022/05/25 00:21:42;;;;;;;4.40;1.98;;;18.20;99.90;;;;;;170054;29;1754;-71
2022/05/25 00:21:48;;;;;;;4.15;1.95;;;18.30;99.90;;;;;;169845;29;1414;-71
2022/05/25 00:21:53;;;;;;;3.35;1.90;;;18.20;99.90;;;;;;169783;29;1526;-71
2022/05/25 00:21:59;;;;;;;3.17;1.90;;;18.30;99.90;;;;;;169265;29;1307;-71
2022/05/25 00:22:05;;;;;;;3.15;1.92;;;18.30;99.90;;;;;;168486;29;1607;-71
2022/05/25 00:22:11;;;;;;;3.38;2.00;;;18.20;99.90;;;;;;168008;29;1345;-71
2022/05/25 00:22:17;;;;;;;3.97;2.05;;;18.20;99.90;;;;;;168001;29;911;-71
2022/05/25 00:22:22;;;;;;;4.50;2.08;;;18.30;99.90;;;;;;168553;29;1082;-71
2022/05/25 00:22:46;;;;;;;4.80;1.97;;;18.30;99.90;;;;;;169284;29;1218;-71
2022/05/25 00:22:55;;;;;;;4.10;1.84;;;18.20;99.90;;;;;;169156;29;1201;-71
2022/05/25 00:23:02;;;;;;;3.44;1.84;;;18.30;99.90;;;;;;169361;29;1494;-71
2022/05/25 00:23:08;;;;;;;4.00;1.90;;;18.30;99.90;;;;;;168973;29;1374;-71
2022/05/25 00:23:14;;;;;;;4.20;1.90;;;18.30;99.90;;;;;;168622;29;1770;-71
2022/05/25 00:23:19;;;;;;;4.28;1.80;;;18.20;99.90;;;;;;168950;29;1396;-71
2022/05/25 00:23:25;;;;;;;4.20;1.83;;;18.20;99.90;;;;;;169176;29;891;-72
2022/05/25 00:23:31;;;;;;;3.97;1.77;;;18.30;99.90;;;;;;169667;29;1335;-71
2022/05/25 00:23:37;;;;;;;3.58;1.63;;;18.30;99.90;;;;;;169117;29;1990;-71
2022/05/25 00:23:42;;;;;;;3.20;1.50;;;18.30;99.90;;;;;;169490;29;1521;-71
2022/05/25 00:23:48;;;;;;;2.58;1.40;;;18.30;99.90;;;;;;169951;29;1341;-71
2022/05/25 00:23:54;;;;;;;2.20;1.38;;;18.30;99.90;;;;;;169095;29;1346;-71
2022/05/25 00:24:00;;;;;;;2.33;1.40;;;18.30;99.90;;;;;;168804;29;1658;-71
2022/05/25 00:24:06;;;;;;;2.28;1.42;;;18.30;99.90;;;;;;169118;29;903;-71
2022/05/25 00:24:12;;;;;;;3.83;1.50;;;18.30;99.90;;;;;;168984;29;1176;-71
2022/05/25 00:24:17;;;;;;;3.77;1.50;;;18.30;99.90;;;;;;169206;29;1815;-71
2022/05/25 00:24:23;;;;;;;3.95;1.52;;;18.30;99.90;;;;;;169726;29;1491;-71
2022/05/25 00:24:29;;;;;;;3.90;1.55;;;18.30;99.90;;;;;;169671;29;1510;-71
2022/05/25 00:24:35;;;;;;;4.85;1.65;;;18.30;99.90;;;;;;168901;29;1728;-71
2022/05/25 00:24:41;;;;;;;3.93;1.73;;;18.30;99.90;;;;;;169678;29;1109;-71
2022/05/25 00:24:47;;;;;;;4.00;1.77;;;18.30;99.90;;;;;;170552;29;800;-71
2022/05/25 00:24:57;;;;;;;4.13;1.85;;;18.30;99.90;;;;;;169685;29;1381;-71
2022/05/25 00:25:03;;;;;;;3.76;1.76;;;18.30;99.90;;;;;;169874;29;1124;-70
2022/05/25 00:25:14;;;;;;;2.93;1.70;;;18.30;99.90;;;;;;170235;29;1097;-71
2022/05/25 00:25:30;;;;;;;2.40;1.50;;;18.30;99.90;;;;;;169307;29;1793;-71
2022/05/25 00:25:39;;;;;;;2.80;1.58;;;18.30;99.90;;;;;;169590;29;1223;-71
2022/05/25 00:25:45;;;;;;;3.54;1.76;;;18.30;99.90;;;;;;169325;29;1333;-71
2022/05/25 00:25:51;;;;;;;3.80;1.83;;;18.30;99.90;;;;;;169732;29;1205;-71
2022/05/25 00:25:57;;;;;;;3.72;1.80;;;18.30;99.90;;;;;;169402;29;1044;-71
2022/05/25 00:26:03;;;;;;;3.20;1.67;;;18.30;99.90;;;;;;168580;29;939;-71
2022/05/25 00:26:08;;;;;;;2.90;1.50;;;18.30;99.90;;;;;;168509;29;1450;-71
2022/05/25 00:26:14;;;;;;;3.03;1.50;;;18.30;99.90;;;;;;168920;29;1195;-71
2022/05/25 00:26:20;;;;;;;4.10;1.67;;;18.20;99.90;;;;;;168584;29;978;-71
2022/05/25 00:26:25;;;;;;;4.60;1.85;;;18.30;99.90;;;;;;169610;29;1271;-71
2022/05/25 00:26:33;;;;;;;4.55;1.90;;;18.30;99.90;;;;;;170428;28;1010;-71
2022/05/25 00:26:39;;;;;;;4.60;2.00;;;18.20;99.90;;;;;;169264;29;1320;-71
2022/05/25 00:26:44;;;;;;;4.57;2.00;;;18.20;99.90;;;;;;169768;29;852;-71
2022/05/25 00:26:50;;;;;;;3.67;1.77;;;18.30;99.90;;;;;;169415;29;1022;-71
2022/05/25 00:26:56;;;;;;;3.22;1.63;;;18.30;99.90;;;;;;170329;29;1840;-72
2022/05/25 00:27:02;;;;;;;3.25;1.70;;;18.30;99.90;;;;;;170411;29;1287;-71
2022/05/25 00:27:07;;;;;;;3.15;1.65;;;18.30;99.90;;;;;;169934;29;1201;-71
2022/05/25 00:27:13;;;;;;;3.10;1.70;;;18.30;99.90;;;;;;169866;29;884;-71
2022/05/25 00:27:19;;;;;;;2.80;1.67;;;18.20;99.90;;;;;;170473;28;1862;-71
2022/05/25 00:27:24;;;;;;;2.80;1.70;;;18.30;99.90;;;;;;170518;29;1373;-71
2022/05/25 00:27:30;;;;;;;2.77;1.77;;;18.20;99.90;;;;;;170297;28;1245;-71
2022/05/25 00:27:36;;;;;;;3.13;1.77;;;18.30;99.90;;;;;;169879;29;883;-71
2022/05/25 00:27:42;;;;;;;4.20;1.90;;;18.30;99.90;;;;;;169852;28;1165;-71
2022/05/25 00:27:48;;;;;;;4.60;1.95;;;18.30;99.90;;;;;;169998;29;870;-71
2022/05/25 00:27:53;;;;;;;4.95;2.00;;;18.30;99.90;;;;;;169887;29;1074;-71
2022/05/25 00:28:07;;;;;;;4.80;1.80;;;18.30;99.90;;;;;;170380;29;1155;-71
2022/05/25 00:28:14;;;;;;;4.13;1.69;;;18.30;99.90;;;;;;169260;29;1736;-71
2022/05/25 00:28:20;;;;;;;2.97;1.50;;;18.30;99.90;;;;;;169055;29;1704;-71
2022/05/25 00:28:25;;;;;;;2.70;1.52;;;18.30;99.90;;;;;;169348;29;1230;-71
2022/05/25 00:28:31;;;;;;;2.90;1.70;;;18.30;99.90;;;;;;170427;29;871;-71
2022/05/25 00:28:37;;;;;;;2.95;1.80;;;18.30;99.90;;;;;;169909;28;1295;-71
2022/05/25 00:28:42;;;;;;;3.00;1.80;;;18.30;99.90;;;;;;170031;28;2575;-71
2022/05/25 00:28:48;;;;;;;3.23;1.90;;;18.30;99.90;;;;;;170149;28;1643;-71
2022/05/25 00:28:54;;;;;;;3.47;2.05;;;18.30;99.90;;;;;;170207;29;1612;-71
2022/05/25 00:29:02;;;;;;;3.53;2.00;;;18.30;99.90;;;;;;170474;29;867;-71
2022/05/25 00:29:08;;;;;;;3.82;1.87;;;18.30;99.90;;;;;;168637;29;1750;-71
2022/05/25 00:29:14;;;;;;;4.80;1.88;;;18.40;99.90;;;;;;169097;29;1023;-71
2022/05/25 00:29:20;;;;;;;4.80;1.63;;;18.30;99.90;;;;;;169772;29;1559;-71
2022/05/25 00:29:26;;;;;;;5.03;1.63;;;18.40;99.90;;;;;;170559;29;1034;-71
2022/05/25 00:29:32;;;;;;;5.53;1.70;;;18.40;99.90;;;;;;169230;29;1343;-71
2022/05/25 00:29:38;;;;;;;5.00;1.70;;;18.30;99.90;;;;;;169231;29;899;-71
2022/05/25 00:29:44;;;;;;;4.23;1.77;;;18.40;99.90;;;;;;168849;29;1558;-71
2022/05/25 00:29:50;;;;;;;4.14;1.88;;;18.30;99.90;;;;;;169883;29;899;-71
2022/05/25 00:29:56;;;;;;;3.95;1.77;;;18.30;99.90;;;;;;169781;29;1135;-71
2022/05/25 00:30:03;;;;;;;3.47;1.70;;;18.30;99.90;;;;;;170315;29;1440;-71
2022/05/25 00:30:11;;;;;;;3.48;1.78;;;18.30;99.90;;;;;;169853;29;1345;-71
2022/05/25 00:30:18;;;;;;;3.37;1.73;;;18.40;99.90;;;;;;169085;29;1856;-71
2022/05/25 00:30:25;;;;;;;3.27;1.80;;;18.40;99.90;;;;;;169685;29;1507;-71
2022/05/25 00:30:32;;;;;;;3.15;1.83;;;18.30;99.90;;;;;;169284;29;2182;-71
2022/05/25 00:30:40;;;;;;;3.17;1.70;;;18.40;99.90;;;;;;169911;29;1386;-71
2022/05/25 00:30:46;;;;;;;3.91;1.63;;;18.30;99.90;;;;;;169211;29;1042;-72
2022/05/25 00:30:52;;;;;;;4.60;1.70;;;18.30;99.90;;;;;;169396;29;1100;-71
2022/05/25 00:30:57;;;;;;;5.43;1.60;;;18.30;99.90;;;;;;169516;29;1135;-71
2022/05/25 00:31:03;;;;;;;5.22;1.60;;;18.30;99.90;;;;;;168776;29;1371;-71
2022/05/25 00:31:09;;;;;;;4.82;1.60;;;18.30;99.90;;;;;;168562;29;925;-71
2022/05/25 00:31:15;;;;;;;4.37;1.60;;;18.30;99.90;;;;;;168523;29;1259;-71
2022/05/25 00:31:20;;;;;;;4.00;1.60;;;18.30;99.90;;;;;;169972;29;1698;-71
2022/05/25 00:31:26;;;;;;;3.47;1.60;;;18.30;99.90;;;;;;170537;29;892;-71
2022/05/25 00:31:32;;;;;;;3.75;1.60;;;18.40;99.90;;;;;;170071;29;1927;-71
2022/05/25 00:31:38;;;;;;;3.70;1.60;;;18.40;99.90;;;;;;170348;29;1421;-71
2022/05/25 00:31:44;;;;;;;3.75;1.60;;;18.40;99.90;;;;;;170534;28;1434;-71
2022/05/25 00:31:50;;;;;;;3.73;1.60;;;18.40;99.90;;;;;;170181;29;1745;-71
2022/05/25 00:31:55;;;;;;;3.67;1.60;;;18.40;99.90;;;;;;170219;29;1432;-71
2022/05/25 00:32:01;;;;;;;3.03;1.60;;;18.40;99.90;;;;;;170446;29;1252;-71
2022/05/25 00:32:07;;;;;;;2.67;1.53;;;18.40;99.90;;;;;;170011;29;1555;-71
2022/05/25 00:32:13;;;;;;;2.77;1.60;;;18.40;99.90;;;;;;170334;29;1234;-71
2022/05/25 00:32:19;;;;;;;2.60;1.53;;;18.40;99.90;;;;;;170419;29;1831;-71
2022/05/25 00:32:24;;;;;;;2.72;1.60;;;18.40;99.90;;;;;;170253;29;1265;-71
2022/05/25 00:32:31;;;;;;;4.10;1.73;;;18.40;99.90;;;;;;169876;29;892;-71
2022/05/25 00:32:37;;;;;;;5.83;1.80;;;18.40;99.90;;;;;;168955;29;1391;-72
2022/05/25 00:32:43;;;;;;;5.88;1.80;;;18.40;99.90;;;;;;168520;29;963;-71
2022/05/25 00:32:49;;;;;;;6.07;1.83;;;18.50;99.90;;;;;;169437;29;1679;-71
2022/05/25 00:32:58;;;;;;;6.00;1.87;;;18.40;99.90;;;;;;169233;29;1334;-71
2022/05/25 00:33:03;;;;;;;4.09;1.87;;;18.50;99.90;;;;;;170072;29;1184;-71
2022/05/25 00:33:10;;;;;;;3.00;1.85;;;18.50;99.90;;;;;;171164;28;1196;-71
2022/05/25 00:33:21;;;;;;;2.83;1.87;;;18.50;99.90;;;;;;170375;29;1149;-71
2022/05/25 00:33:27;;;;;;;2.80;1.76;;;18.50;99.90;;;;;;171043;28;1665;-71
2022/05/25 00:33:32;;;;;;;2.53;1.63;;;18.50;99.90;;;;;;171508;28;1398;-71
2022/05/25 00:33:38;;;;;;;2.50;1.67;;;18.50;99.90;;;;;;171165;28;1045;-71
2022/05/25 00:33:44;;;;;;;2.72;1.60;;;18.50;99.90;;;;;;170316;28;1135;-70
2022/05/25 00:33:50;;;;;;;2.75;1.60;;;18.50;99.90;;;;;;171233;28;1049;-71
2022/05/25 00:33:55;;;;;;;2.50;1.55;;;18.50;99.90;;;;;;170868;28;1017;-71
2022/05/25 00:34:01;;;;;;;2.63;1.60;;;18.50;99.90;;;;;;170996;28;1395;-71
2022/05/25 00:34:07;;;;;;;2.86;1.64;;;18.50;99.90;;;;;;170970;28;1047;-71
2022/05/25 00:34:13;;;;;;;2.60;1.60;;;18.50;99.90;;;;;;170407;28;1274;-71
2022/05/25 00:34:19;;;;;;;2.63;1.60;;;18.50;99.90;;;;;;170424;29;1690;-71
2022/05/25 00:34:25;;;;;;;2.90;1.63;;;18.50;99.90;;;;;;170558;28;1314;-71
2022/05/25 00:34:31;;;;;;;2.83;1.70;;;18.50;99.90;;;;;;169859;29;1038;-71
2022/05/25 00:34:37;;;;;;;2.90;1.70;;;18.50;99.90;;;;;;169626;29;1135;-71
2022/05/25 00:34:43;;;;;;;3.00;1.73;;;18.50;99.90;;;;;;169779;29;927;-71
2022/05/25 00:34:48;;;;;;;3.30;1.90;;;18.50;99.90;;;;;;169674;29;1198;-71
2022/05/25 00:34:54;;;;;;;3.47;1.87;;;18.60;99.90;;;;;;169805;29;1219;-71
2022/05/25 00:35:00;;;;;;;3.60;1.90;;;18.50;99.90;;;;;;169835;29;1063;-71
2022/05/25 00:35:10;;;;;;;3.40;1.85;;;18.50;99.90;;;;;;169588;29;1042;-71
2022/05/25 00:35:19;;;;;;;3.36;1.90;;;18.50;99.90;;;;;;169658;29;1273;-71
2022/05/25 00:35:27;;;;;;;3.00;1.83;;;18.60;99.90;;;;;;169653;29;1124;-71
2022/05/25 00:35:35;;;;;;;2.88;1.80;;;18.60;99.90;;;;;;170388;29;1196;-71